sensor_id;sensor_type;location;lat;lon;timestamp;temperature;humidity
26053;DHT22;13826;51.186;4.450;2022-08-05T00:00:30;22.50;99.90
26053;DHT22;13826;51.186;4.450;2022-08-05T00:02:55;22.40;99.90
26053;DHT22;13826;51.186;4.450;2022-08-05T00:05:22;22.20;99.90
26053;DHT22;13826;51.186;4.450;2022-08-05T00:07:47;22.20;99.90
26053;DHT22;13826;51.186;4.450;2022-08-05T00:10:13;22.10;99.90
26053;DHT22;13826;51.186;4.450;2022-08-05T00:12:39;21.90;99.90
26053;DHT22;13826;51.186;4.450;2022-08-05T00:15:05;21.80;99.90
26053;DHT22;13826;51.186;4.450;2022-08-05T00:17:31;21.90;99.90
26053;DHT22;13826;51.186;4.450;2022-08-05T00:19:57;21.90;99.90
26053;DHT22;13826;51.186;4.450;2022-08-05T00:22:22;21.80;1.00
26053;DHT22;13826;51.186;4.450;2022-08-05T00:24:48;21.70;1.00
26053;DHT22;13826;51.186;4.450;2022-08-05T00:27:14;21.70;1.00
26053;DHT22;13826;51.186;4.450;2022-08-05T00:29:39;21.70;1.00
26053;DHT22;13826;51.186;4.450;2022-08-05T00:32:05;21.70;1.00
26053;DHT22;13826;51.186;4.450;2022-08-05T00:34:33;21.90;1.00
26053;DHT22;13826;51.186;4.450;2022-08-05T00:36:59;22.00;1.00
26053;DHT22;13826;51.186;4.450;2022-08-05T00:39:24;22.20;1.00
26053;DHT22;13826;51.186;4.450;2022-08-05T00:41:50;22.00;1.00
26053;DHT22;13826;51.186;4.450;2022-08-05T00:44:15;22.00;1.00
26053;DHT22;13826;51.186;4.450;2022-08-05T00:46:41;21.90;99.90
26053;DHT22;13826;51.186;4.450;2022-08-05T00:49:07;21.90;99.90
26053;DHT22;13826;51.186;4.450;2022-08-05T00:51:32;21.90;99.90
26053;DHT22;13826;51.186;4.450;2022-08-05T00:53:58;22.00;99.90
26053;DHT22;13826;51.186;4.450;2022-08-05T00:56:24;22.00;99.90
26053;DHT22;13826;51.186;4.450;2022-08-05T00:58:49;22.10;99.90
26053;DHT22;13826;51.186;4.450;2022-08-05T01:01:15;22.10;99.90
26053;DHT22;13826;51.186;4.450;2022-08-05T01:03:41;22.20;32.70
26053;DHT22;13826;51.186;4.450;2022-08-05T01:06:08;22.30;1.00
26053;DHT22;13826;51.186;4.450;2022-08-05T01:08:34;22.20;51.00
26053;DHT22;13826;51.186;4.450;2022-08-05T01:11:10;22.10;99.90
26053;DHT22;13826;51.186;4.450;2022-08-05T01:13:56;22.10;99.90
26053;DHT22;13826;51.186;4.450;2022-08-05T01:22:22;21.90;1.00
26053;DHT22;13826;51.186;4.450;2022-08-05T01:30:11;21.80;99.90
26053;DHT22;13826;51.186;4.450;2022-08-05T01:32:40;21.80;1.00
26053;DHT22;13826;51.186;4.450;2022-08-05T01:35:17;22.00;1.00
26053;DHT22;13826;51.186;4.450;2022-08-05T01:37:46;22.00;1.00
26053;DHT22;13826;51.186;4.450;2022-08-05T01:40:14;21.80;99.90
26053;DHT22;13826;51.186;4.450;2022-08-05T01:42:43;21.70;99.90
26053;DHT22;13826;51.186;4.450;2022-08-05T01:45:10;21.60;1.00
26053;DHT22;13826;51.186;4.450;2022-08-05T01:47:37;21.70;1.00
26053;DHT22;13826;51.186;4.450;2022-08-05T01:50:05;21.50;99.90
26053;DHT22;13826;51.186;4.450;2022-08-05T01:52:35;21.60;7.70
26053;DHT22;13826;51.186;4.450;2022-08-05T01:55:04;21.40;99.90
26053;DHT22;13826;51.186;4.450;2022-08-05T01:57:39;21.50;99.90
26053;DHT22;13826;51.186;4.450;2022-08-05T02:00:07;21.40;99.90
26053;DHT22;13826;51.186;4.450;2022-08-05T02:02:40;21.40;1.00
26053;DHT22;13826;51.186;4.450;2022-08-05T02:05:10;21.20;1.00
26053;DHT22;13826;51.186;4.450;2022-08-05T02:07:37;21.20;99.90
26053;DHT22;13826;51.186;4.450;2022-08-05T02:10:04;21.20;1.00
26053;DHT22;13826;51.186;4.450;2022-08-05T02:12:48;21.30;97.30
26053;DHT22;13826;51.186;4.450;2022-08-05T02:15:44;21.30;95.60
26053;DHT22;13826;51.186;4.450;2022-08-05T02:18:46;21.30;99.90
26053;DHT22;13826;51.186;4.450;2022-08-05T02:21:12;21.40;1.00
26053;DHT22;13826;51.186;4.450;2022-08-05T02:23:40;21.50;99.90
26053;DHT22;13826;51.186;4.450;2022-08-05T02:26:09;21.50;99.90
26053;DHT22;13826;51.186;4.450;2022-08-05T02:28:39;21.60;99.90
26053;DHT22;13826;51.186;4.450;2022-08-05T02:31:08;21.60;1.00
26053;DHT22;13826;51.186;4.450;2022-08-05T02:33:38;21.60;1.00
26053;DHT22;13826;51.186;4.450;2022-08-05T02:36:10;21.60;1.00
26053;DHT22;13826;51.186;4.450;2022-08-05T02:38:36;21.40;99.90
26053;DHT22;13826;51.186;4.450;2022-08-05T02:41:04;21.60;99.90
26053;DHT22;13826;51.186;4.450;2022-08-05T02:43:31;21.60;1.00
26053;DHT22;13826;51.186;4.450;2022-08-05T02:45:58;21.60;99.90
26053;DHT22;13826;51.186;4.450;2022-08-05T02:48:26;21.70;1.00
26053;DHT22;13826;51.186;4.450;2022-08-05T02:50:52;21.70;1.00
26053;DHT22;13826;51.186;4.450;2022-08-05T02:53:19;21.60;99.90
26053;DHT22;13826;51.186;4.450;2022-08-05T02:55:47;21.60;99.90
26053;DHT22;13826;51.186;4.450;2022-08-05T02:58:15;21.50;99.90
26053;DHT22;13826;51.186;4.450;2022-08-05T03:00:43;21.40;99.90
26053;DHT22;13826;51.186;4.450;2022-08-05T03:03:13;21.30;1.00
26053;DHT22;13826;51.186;4.450;2022-08-05T03:05:40;21.40;99.90
26053;DHT22;13826;51.186;4.450;2022-08-05T03:08:08;21.40;1.00
26053;DHT22;13826;51.186;4.450;2022-08-05T03:10:34;21.30;1.00
26053;DHT22;13826;51.186;4.450;2022-08-05T03:13:00;21.30;1.00
26053;DHT22;13826;51.186;4.450;2022-08-05T03:15:26;21.30;1.00
26053;DHT22;13826;51.186;4.450;2022-08-05T03:17:52;21.40;1.00
26053;DHT22;13826;51.186;4.450;2022-08-05T03:20:19;21.20;32.30
26053;DHT22;13826;51.186;4.450;2022-08-05T03:22:44;21.20;99.90
26053;DHT22;13826;51.186;4.450;2022-08-05T03:25:10;21.20;1.00
26053;DHT22;13826;51.186;4.450;2022-08-05T03:27:37;21.10;99.90
26053;DHT22;13826;51.186;4.450;2022-08-05T03:30:02;21.00;1.00
26053;DHT22;13826;51.186;4.450;2022-08-05T03:32:29;21.00;1.00
26053;DHT22;13826;51.186;4.450;2022-08-05T03:34:54;21.00;1.00
26053;DHT22;13826;51.186;4.450;2022-08-05T03:37:20;21.00;1.00
26053;DHT22;13826;51.186;4.450;2022-08-05T03:39:55;21.00;99.90
26053;DHT22;13826;51.186;4.450;2022-08-05T03:42:21;20.90;1.00
26053;DHT22;13826;51.186;4.450;2022-08-05T03:44:47;20.90;1.00
26053;DHT22;13826;51.186;4.450;2022-08-05T03:47:12;20.70;17.80
26053;DHT22;13826;51.186;4.450;2022-08-05T03:49:38;20.70;99.90
26053;DHT22;13826;51.186;4.450;2022-08-05T03:52:09;20.60;1.00
26053;DHT22;13826;51.186;4.450;2022-08-05T03:54:42;20.60;80.30
26053;DHT22;13826;51.186;4.450;2022-08-05T03:57:10;20.60;99.90
26053;DHT22;13826;51.186;4.450;2022-08-05T03:59:42;20.50;99.90
26053;DHT22;13826;51.186;4.450;2022-08-05T04:02:10;20.50;1.00
26053;DHT22;13826;51.186;4.450;2022-08-05T04:04:38;20.40;1.00
26053;DHT22;13826;51.186;4.450;2022-08-05T04:07:05;20.40;1.00
26053;DHT22;13826;51.186;4.450;2022-08-05T04:09:31;20.50;1.00
26053;DHT22;13826;51.186;4.450;2022-08-05T04:11:57;20.50;99.90
26053;DHT22;13826;51.186;4.450;2022-08-05T04:14:24;20.60;1.00
26053;DHT22;13826;51.186;4.450;2022-08-05T04:16:51;20.50;1.00
26053;DHT22;13826;51.186;4.450;2022-08-05T04:19:17;20.60;81.40
26053;DHT22;13826;51.186;4.450;2022-08-05T04:21:42;20.70;1.00
26053;DHT22;13826;51.186;4.450;2022-08-05T04:24:08;20.60;99.90
26053;DHT22;13826;51.186;4.450;2022-08-05T04:26:34;20.60;99.90
26053;DHT22;13826;51.186;4.450;2022-08-05T04:29:00;20.60;99.90
26053;DHT22;13826;51.186;4.450;2022-08-05T04:31:26;20.50;1.00
26053;DHT22;13826;51.186;4.450;2022-08-05T04:33:51;20.40;1.00
26053;DHT22;13826;51.186;4.450;2022-08-05T04:36:17;20.40;1.00
26053;DHT22;13826;51.186;4.450;2022-08-05T04:38:44;20.50;99.90
26053;DHT22;13826;51.186;4.450;2022-08-05T04:41:10;20.50;99.90
26053;DHT22;13826;51.186;4.450;2022-08-05T04:43:36;20.50;1.00
26053;DHT22;13826;51.186;4.450;2022-08-05T04:46:02;20.40;99.90
26053;DHT22;13826;51.186;4.450;2022-08-05T04:48:29;20.40;99.90
26053;DHT22;13826;51.186;4.450;2022-08-05T04:50:55;20.30;99.90
26053;DHT22;13826;51.186;4.450;2022-08-05T04:53:21;20.30;99.90
26053;DHT22;13826;51.186;4.450;2022-08-05T04:55:47;20.20;99.90
26053;DHT22;13826;51.186;4.450;2022-08-05T04:58:14;20.20;99.90
26053;DHT22;13826;51.186;4.450;2022-08-05T05:00:41;20.20;99.90
26053;DHT22;13826;51.186;4.450;2022-08-05T05:03:08;20.30;99.90
26053;DHT22;13826;51.186;4.450;2022-08-05T05:05:35;20.40;99.90
26053;DHT22;13826;51.186;4.450;2022-08-05T05:08:03;20.30;19.00
26053;DHT22;13826;51.186;4.450;2022-08-05T05:10:37;20.30;99.90
26053;DHT22;13826;51.186;4.450;2022-08-05T05:13:03;20.10;1.00
26053;DHT22;13826;51.186;4.450;2022-08-05T05:15:28;20.00;1.00
26053;DHT22;13826;51.186;4.450;2022-08-05T05:17:54;20.10;1.00
26053;DHT22;13826;51.186;4.450;2022-08-05T05:20:20;20.10;1.00
26053;DHT22;13826;51.186;4.450;2022-08-05T05:22:45;20.10;1.00
26053;DHT22;13826;51.186;4.450;2022-08-05T05:25:11;20.20;1.00
26053;DHT22;13826;51.186;4.450;2022-08-05T05:27:38;20.30;1.00
26053;DHT22;13826;51.186;4.450;2022-08-05T05:30:04;20.40;99.90
26053;DHT22;13826;51.186;4.450;2022-08-05T05:32:30;20.60;1.00
26053;DHT22;13826;51.186;4.450;2022-08-05T05:34:56;20.90;99.90
26053;DHT22;13826;51.186;4.450;2022-08-05T05:37:22;20.80;1.00
26053;DHT22;13826;51.186;4.450;2022-08-05T05:39:47;20.80;1.00
26053;DHT22;13826;51.186;4.450;2022-08-05T05:42:13;20.90;99.90
26053;DHT22;13826;51.186;4.450;2022-08-05T05:44:39;21.00;99.90
26053;DHT22;13826;51.186;4.450;2022-08-05T05:47:04;21.10;1.00
26053;DHT22;13826;51.186;4.450;2022-08-05T05:49:30;21.10;1.00
26053;DHT22;13826;51.186;4.450;2022-08-05T05:51:57;21.20;99.90
26053;DHT22;13826;51.186;4.450;2022-08-05T05:54:22;21.30;1.00
26053;DHT22;13826;51.186;4.450;2022-08-05T05:56:48;21.30;99.90
26053;DHT22;13826;51.186;4.450;2022-08-05T05:59:14;21.60;1.00
26053;DHT22;13826;51.186;4.450;2022-08-05T06:01:40;22.00;99.90
26053;DHT22;13826;51.186;4.450;2022-08-05T06:04:10;22.30;1.00
26053;DHT22;13826;51.186;4.450;2022-08-05T06:06:35;22.90;30.40
26053;DHT22;13826;51.186;4.450;2022-08-05T06:09:03;23.20;1.00
26053;DHT22;13826;51.186;4.450;2022-08-05T06:11:30;23.40;99.90
26053;DHT22;13826;51.186;4.450;2022-08-05T06:13:56;23.50;99.90
26053;DHT22;13826;51.186;4.450;2022-08-05T06:16:22;23.70;99.90
26053;DHT22;13826;51.186;4.450;2022-08-05T06:18:48;23.60;99.90
26053;DHT22;13826;51.186;4.450;2022-08-05T06:21:14;23.60;99.90
26053;DHT22;13826;51.186;4.450;2022-08-05T06:23:39;23.80;99.90
26053;DHT22;13826;51.186;4.450;2022-08-05T06:26:05;23.50;99.90
26053;DHT22;13826;51.186;4.450;2022-08-05T06:28:31;23.40;99.90
26053;DHT22;13826;51.186;4.450;2022-08-05T06:30:56;23.60;99.90
26053;DHT22;13826;51.186;4.450;2022-08-05T06:33:22;23.70;99.90
26053;DHT22;13826;51.186;4.450;2022-08-05T06:35:48;23.70;99.90
26053;DHT22;13826;51.186;4.450;2022-08-05T06:38:13;23.80;63.50
26053;DHT22;13826;51.186;4.450;2022-08-05T06:40:41;23.80;29.60
26053;DHT22;13826;51.186;4.450;2022-08-05T06:43:07;24.90;1.00
26053;DHT22;13826;51.186;4.450;2022-08-05T06:45:33;25.80;1.00
26053;DHT22;13826;51.186;4.450;2022-08-05T06:47:59;27.00;1.00
26053;DHT22;13826;51.186;4.450;2022-08-05T06:50:24;26.80;1.00
26053;DHT22;13826;51.186;4.450;2022-08-05T06:52:51;26.80;1.00
26053;DHT22;13826;51.186;4.450;2022-08-05T06:55:17;26.50;1.00
26053;DHT22;13826;51.186;4.450;2022-08-05T06:57:43;26.20;1.00
26053;DHT22;13826;51.186;4.450;2022-08-05T07:00:09;27.80;1.00
26053;DHT22;13826;51.186;4.450;2022-08-05T07:02:42;29.20;1.00
26053;DHT22;13826;51.186;4.450;2022-08-05T07:05:08;30.70;1.00
26053;DHT22;13826;51.186;4.450;2022-08-05T07:07:33;31.50;1.00
26053;DHT22;13826;51.186;4.450;2022-08-05T07:09:59;32.60;1.00
26053;DHT22;13826;51.186;4.450;2022-08-05T07:12:25;33.10;1.00
26053;DHT22;13826;51.186;4.450;2022-08-05T07:15:09;33.20;1.00
26053;DHT22;13826;51.186;4.450;2022-08-05T07:17:53;33.40;1.00
26053;DHT22;13826;51.186;4.450;2022-08-05T07:20:18;34.40;1.00
26053;DHT22;13826;51.186;4.450;2022-08-05T07:22:44;34.20;1.00
26053;DHT22;13826;51.186;4.450;2022-08-05T07:25:10;34.30;1.00
26053;DHT22;13826;51.186;4.450;2022-08-05T07:27:35;34.50;1.00
26053;DHT22;13826;51.186;4.450;2022-08-05T07:30:01;35.10;1.00
26053;DHT22;13826;51.186;4.450;2022-08-05T07:32:27;36.30;1.00
26053;DHT22;13826;51.186;4.450;2022-08-05T07:34:52;36.90;1.00
26053;DHT22;13826;51.186;4.450;2022-08-05T07:37:18;37.20;1.00
26053;DHT22;13826;51.186;4.450;2022-08-05T07:39:44;36.80;1.00
26053;DHT22;13826;51.186;4.450;2022-08-05T07:42:09;36.80;1.00
26053;DHT22;13826;51.186;4.450;2022-08-05T07:44:35;36.20;1.00
26053;DHT22;13826;51.186;4.450;2022-08-05T07:47:01;36.70;1.00
26053;DHT22;13826;51.186;4.450;2022-08-05T07:49:26;36.80;1.00
26053;DHT22;13826;51.186;4.450;2022-08-05T07:51:52;36.90;1.00
26053;DHT22;13826;51.186;4.450;2022-08-05T07:54:18;36.50;1.00
26053;DHT22;13826;51.186;4.450;2022-08-05T07:56:45;37.00;1.00
26053;DHT22;13826;51.186;4.450;2022-08-05T07:59:10;36.30;1.00
26053;DHT22;13826;51.186;4.450;2022-08-05T08:01:36;34.70;1.00
26053;DHT22;13826;51.186;4.450;2022-08-05T08:04:02;34.70;1.00
26053;DHT22;13826;51.186;4.450;2022-08-05T08:06:28;35.80;1.00
26053;DHT22;13826;51.186;4.450;2022-08-05T08:08:55;36.40;1.00
26053;DHT22;13826;51.186;4.450;2022-08-05T08:11:21;37.20;1.00
26053;DHT22;13826;51.186;4.450;2022-08-05T08:13:47;38.60;1.00
26053;DHT22;13826;51.186;4.450;2022-08-05T08:16:12;38.90;1.00
26053;DHT22;13826;51.186;4.450;2022-08-05T08:18:38;39.30;1.00
26053;DHT22;13826;51.186;4.450;2022-08-05T08:21:04;39.10;1.00
26053;DHT22;13826;51.186;4.450;2022-08-05T08:23:30;38.70;1.00
26053;DHT22;13826;51.186;4.450;2022-08-05T08:25:56;39.70;1.00
26053;DHT22;13826;51.186;4.450;2022-08-05T08:28:22;39.90;1.00
26053;DHT22;13826;51.186;4.450;2022-08-05T08:30:47;40.00;1.00
26053;DHT22;13826;51.186;4.450;2022-08-05T08:33:13;37.90;1.00
26053;DHT22;13826;51.186;4.450;2022-08-05T08:35:39;36.20;1.00
26053;DHT22;13826;51.186;4.450;2022-08-05T08:38:04;34.30;1.00
26053;DHT22;13826;51.186;4.450;2022-08-05T08:40:34;33.80;1.00
26053;DHT22;13826;51.186;4.450;2022-08-05T08:43:00;35.70;1.00
26053;DHT22;13826;51.186;4.450;2022-08-05T08:45:29;37.00;1.00
26053;DHT22;13826;51.186;4.450;2022-08-05T08:47:57;38.10;1.00
26053;DHT22;13826;51.186;4.450;2022-08-05T08:50:25;38.20;1.00
26053;DHT22;13826;51.186;4.450;2022-08-05T08:52:53;37.60;1.00
26053;DHT22;13826;51.186;4.450;2022-08-05T08:55:21;37.00;1.00
26053;DHT22;13826;51.186;4.450;2022-08-05T08:57:47;37.90;1.00
26053;DHT22;13826;51.186;4.450;2022-08-05T09:00:13;38.10;1.00
26053;DHT22;13826;51.186;4.450;2022-08-05T09:02:40;38.50;1.00
26053;DHT22;13826;51.186;4.450;2022-08-05T09:05:06;39.10;1.00
26053;DHT22;13826;51.186;4.450;2022-08-05T09:07:31;38.10;1.00
26053;DHT22;13826;51.186;4.450;2022-08-05T09:09:58;36.50;1.00
26053;DHT22;13826;51.186;4.450;2022-08-05T09:12:23;34.90;1.00
26053;DHT22;13826;51.186;4.450;2022-08-05T09:14:49;33.20;1.00
26053;DHT22;13826;51.186;4.450;2022-08-05T09:17:15;33.30;1.00
26053;DHT22;13826;51.186;4.450;2022-08-05T09:19:41;34.80;1.00
26053;DHT22;13826;51.186;4.450;2022-08-05T09:22:06;37.00;1.00
26053;DHT22;13826;51.186;4.450;2022-08-05T09:24:35;39.30;1.00
26053;DHT22;13826;51.186;4.450;2022-08-05T09:27:07;37.70;1.00
26053;DHT22;13826;51.186;4.450;2022-08-05T09:29:41;35.70;1.00
26053;DHT22;13826;51.186;4.450;2022-08-05T09:32:10;34.40;1.00
26053;DHT22;13826;51.186;4.450;2022-08-05T09:34:53;32.90;1.00
26053;DHT22;13826;51.186;4.450;2022-08-05T09:37:21;32.00;1.00
26053;DHT22;13826;51.186;4.450;2022-08-05T09:39:47;31.30;1.00
26053;DHT22;13826;51.186;4.450;2022-08-05T09:42:14;31.10;1.00
26053;DHT22;13826;51.186;4.450;2022-08-05T09:44:49;30.70;1.00
26053;DHT22;13826;51.186;4.450;2022-08-05T09:47:22;31.90;1.00
26053;DHT22;13826;51.186;4.450;2022-08-05T09:49:50;33.70;1.00
26053;DHT22;13826;51.186;4.450;2022-08-05T09:55:06;36.60;1.00
26053;DHT22;13826;51.186;4.450;2022-08-05T09:57:43;36.60;1.00
26053;DHT22;13826;51.186;4.450;2022-08-05T10:02:42;37.70;1.00
26053;DHT22;13826;51.186;4.450;2022-08-05T10:05:21;37.50;1.00
26053;DHT22;13826;51.186;4.450;2022-08-05T10:10:31;39.00;1.00
26053;DHT22;13826;51.186;4.450;2022-08-05T10:12:59;38.70;1.00
26053;DHT22;13826;51.186;4.450;2022-08-05T10:15:35;37.20;1.00
26053;DHT22;13826;51.186;4.450;2022-08-05T10:18:15;35.40;1.00
26053;DHT22;13826;51.186;4.450;2022-08-05T10:20:49;34.70;1.00
26053;DHT22;13826;51.186;4.450;2022-08-05T10:23:20;36.00;1.00
26053;DHT22;13826;51.186;4.450;2022-08-05T10:25:47;37.00;1.00
26053;DHT22;13826;51.186;4.450;2022-08-05T10:28:12;38.30;1.00
26053;DHT22;13826;51.186;4.450;2022-08-05T10:30:38;38.30;1.00
26053;DHT22;13826;51.186;4.450;2022-08-05T10:33:05;36.80;1.00
26053;DHT22;13826;51.186;4.450;2022-08-05T10:35:31;34.60;1.00
26053;DHT22;13826;51.186;4.450;2022-08-05T10:37:59;32.60;1.00
26053;DHT22;13826;51.186;4.450;2022-08-05T10:40:35;32.40;1.00
26053;DHT22;13826;51.186;4.450;2022-08-05T10:43:56;33.50;1.00
26053;DHT22;13826;51.186;4.450;2022-08-05T10:45:58;34.90;1.00
26053;DHT22;13826;51.186;4.450;2022-08-05T10:54:03;35.80;1.00
26053;DHT22;13826;51.186;4.450;2022-08-05T10:56:30;34.00;1.00
26053;DHT22;13826;51.186;4.450;2022-08-05T10:59:04;33.30;1.00
26053;DHT22;13826;51.186;4.450;2022-08-05T11:01:38;32.30;1.00
26053;DHT22;13826;51.186;4.450;2022-08-05T11:04:10;31.20;1.00
26053;DHT22;13826;51.186;4.450;2022-08-05T11:15:16;33.80;1.00
26053;DHT22;13826;51.186;4.450;2022-08-05T11:17:44;34.50;1.00
26053;DHT22;13826;51.186;4.450;2022-08-05T11:26:09;34.70;1.00
26053;DHT22;13826;51.186;4.450;2022-08-05T11:28:35;34.50;1.00
26053;DHT22;13826;51.186;4.450;2022-08-05T11:36:11;34.00;1.00
26053;DHT22;13826;51.186;4.450;2022-08-05T11:41:07;34.30;1.00
26053;DHT22;13826;51.186;4.450;2022-08-05T11:43:34;33.10;1.00
26053;DHT22;13826;51.186;4.450;2022-08-05T11:46:00;31.50;1.00
26053;DHT22;13826;51.186;4.450;2022-08-05T11:48:27;30.60;1.00
26053;DHT22;13826;51.186;4.450;2022-08-05T11:50:53;31.70;1.00
26053;DHT22;13826;51.186;4.450;2022-08-05T11:53:19;32.60;1.00
26053;DHT22;13826;51.186;4.450;2022-08-05T11:56:00;33.60;1.00
26053;DHT22;13826;51.186;4.450;2022-08-05T11:58:38;33.80;1.00
26053;DHT22;13826;51.186;4.450;2022-08-05T12:01:12;34.30;1.00
26053;DHT22;13826;51.186;4.450;2022-08-05T12:03:46;33.80;1.00
26053;DHT22;13826;51.186;4.450;2022-08-05T12:06:15;33.90;1.00
26053;DHT22;13826;51.186;4.450;2022-08-05T12:08:52;33.10;1.00
26053;DHT22;13826;51.186;4.450;2022-08-05T12:14:12;31.20;1.00
26053;DHT22;13826;51.186;4.450;2022-08-05T12:16:40;30.20;1.00
26053;DHT22;13826;51.186;4.450;2022-08-05T12:19:08;29.70;1.00
26053;DHT22;13826;51.186;4.450;2022-08-05T12:21:45;29.30;1.00
26053;DHT22;13826;51.186;4.450;2022-08-05T12:24:14;28.70;1.00
26053;DHT22;13826;51.186;4.450;2022-08-05T12:26:43;29.00;1.00
26053;DHT22;13826;51.186;4.450;2022-08-05T12:29:27;28.70;1.00
26053;DHT22;13826;51.186;4.450;2022-08-05T12:31:58;28.40;1.00
26053;DHT22;13826;51.186;4.450;2022-08-05T12:34:30;28.50;1.00
26053;DHT22;13826;51.186;4.450;2022-08-05T12:36:58;28.50;1.00
26053;DHT22;13826;51.186;4.450;2022-08-05T12:39:25;28.70;1.00
26053;DHT22;13826;51.186;4.450;2022-08-05T12:41:57;28.50;1.00
26053;DHT22;13826;51.186;4.450;2022-08-05T12:44:22;28.10;1.00
26053;DHT22;13826;51.186;4.450;2022-08-05T12:46:53;27.70;1.00
26053;DHT22;13826;51.186;4.450;2022-08-05T12:49:19;27.10;1.00
26053;DHT22;13826;51.186;4.450;2022-08-05T12:54:24;27.00;1.00
26053;DHT22;13826;51.186;4.450;2022-08-05T12:56:56;27.20;1.00
26053;DHT22;13826;51.186;4.450;2022-08-05T12:59:33;27.20;1.00
26053;DHT22;13826;51.186;4.450;2022-08-05T13:02:08;27.50;1.00
26053;DHT22;13826;51.186;4.450;2022-08-05T13:04:36;27.40;1.00
26053;DHT22;13826;51.186;4.450;2022-08-05T13:07:05;27.30;1.00
26053;DHT22;13826;51.186;4.450;2022-08-05T13:09:33;27.40;1.00
26053;DHT22;13826;51.186;4.450;2022-08-05T13:12:11;27.80;1.00
26053;DHT22;13826;51.186;4.450;2022-08-05T13:15:00;27.80;1.00
26053;DHT22;13826;51.186;4.450;2022-08-05T13:17:27;27.80;1.00
26053;DHT22;13826;51.186;4.450;2022-08-05T13:20:13;27.80;1.00
26053;DHT22;13826;51.186;4.450;2022-08-05T13:22:47;27.70;1.00
26053;DHT22;13826;51.186;4.450;2022-08-05T13:25:15;27.50;1.00
26053;DHT22;13826;51.186;4.450;2022-08-05T13:27:53;27.20;1.00
26053;DHT22;13826;51.186;4.450;2022-08-05T13:30:22;27.00;1.00
26053;DHT22;13826;51.186;4.450;2022-08-05T13:32:50;26.90;1.00
26053;DHT22;13826;51.186;4.450;2022-08-05T13:35:18;27.00;1.00
26053;DHT22;13826;51.186;4.450;2022-08-05T13:37:45;27.00;1.00
26053;DHT22;13826;51.186;4.450;2022-08-05T13:40:11;26.90;1.00
26053;DHT22;13826;51.186;4.450;2022-08-05T13:42:38;26.90;1.00
26053;DHT22;13826;51.186;4.450;2022-08-05T13:45:06;26.70;1.00
26053;DHT22;13826;51.186;4.450;2022-08-05T13:47:33;26.70;1.00
26053;DHT22;13826;51.186;4.450;2022-08-05T13:49:59;26.40;1.00
26053;DHT22;13826;51.186;4.450;2022-08-05T13:52:26;26.30;1.00
26053;DHT22;13826;51.186;4.450;2022-08-05T13:54:52;26.50;1.00
26053;DHT22;13826;51.186;4.450;2022-08-05T13:57:18;26.50;1.00
26053;DHT22;13826;51.186;4.450;2022-08-05T13:59:44;26.70;1.00
26053;DHT22;13826;51.186;4.450;2022-08-05T14:02:11;26.70;1.00
26053;DHT22;13826;51.186;4.450;2022-08-05T14:04:42;26.60;1.00
26053;DHT22;13826;51.186;4.450;2022-08-05T14:07:32;26.30;1.00
26053;DHT22;13826;51.186;4.450;2022-08-05T14:09:58;26.20;1.00
26053;DHT22;13826;51.186;4.450;2022-08-05T14:12:24;26.40;1.00
26053;DHT22;13826;51.186;4.450;2022-08-05T14:14:50;26.40;1.00
26053;DHT22;13826;51.186;4.450;2022-08-05T14:17:16;26.50;1.00
26053;DHT22;13826;51.186;4.450;2022-08-05T14:19:42;26.60;1.00
26053;DHT22;13826;51.186;4.450;2022-08-05T14:22:08;26.40;1.00
26053;DHT22;13826;51.186;4.450;2022-08-05T14:24:34;26.20;1.00
26053;DHT22;13826;51.186;4.450;2022-08-05T14:27:00;26.00;1.00
26053;DHT22;13826;51.186;4.450;2022-08-05T14:29:27;26.00;1.00
26053;DHT22;13826;51.186;4.450;2022-08-05T14:31:53;25.90;1.00
26053;DHT22;13826;51.186;4.450;2022-08-05T14:34:18;26.00;1.00
26053;DHT22;13826;51.186;4.450;2022-08-05T14:36:44;26.00;1.00
26053;DHT22;13826;51.186;4.450;2022-08-05T14:39:10;25.90;1.00
26053;DHT22;13826;51.186;4.450;2022-08-05T14:41:36;25.80;1.00
26053;DHT22;13826;51.186;4.450;2022-08-05T14:44:02;25.90;1.00
26053;DHT22;13826;51.186;4.450;2022-08-05T14:46:28;26.00;1.00
26053;DHT22;13826;51.186;4.450;2022-08-05T14:48:55;25.80;1.00
26053;DHT22;13826;51.186;4.450;2022-08-05T14:51:21;25.80;1.00
26053;DHT22;13826;51.186;4.450;2022-08-05T14:53:47;25.80;1.00
26053;DHT22;13826;51.186;4.450;2022-08-05T14:56:14;25.50;1.00
26053;DHT22;13826;51.186;4.450;2022-08-05T14:58:40;25.70;1.00
26053;DHT22;13826;51.186;4.450;2022-08-05T15:01:05;25.50;1.00
26053;DHT22;13826;51.186;4.450;2022-08-05T15:03:31;25.40;1.00
26053;DHT22;13826;51.186;4.450;2022-08-05T15:05:57;25.60;1.00
26053;DHT22;13826;51.186;4.450;2022-08-05T15:08:23;25.60;1.00
26053;DHT22;13826;51.186;4.450;2022-08-05T15:10:50;25.60;1.00
26053;DHT22;13826;51.186;4.450;2022-08-05T15:13:16;25.60;1.00
26053;DHT22;13826;51.186;4.450;2022-08-05T15:15:42;25.40;1.00
26053;DHT22;13826;51.186;4.450;2022-08-05T15:18:07;25.50;1.00
26053;DHT22;13826;51.186;4.450;2022-08-05T15:20:33;25.40;1.00
26053;DHT22;13826;51.186;4.450;2022-08-05T15:23:03;25.10;1.00
26053;DHT22;13826;51.186;4.450;2022-08-05T15:25:29;25.30;1.00
26053;DHT22;13826;51.186;4.450;2022-08-05T15:27:55;25.50;1.00
26053;DHT22;13826;51.186;4.450;2022-08-05T15:30:21;25.40;1.00
26053;DHT22;13826;51.186;4.450;2022-08-05T15:32:47;25.30;1.00
26053;DHT22;13826;51.186;4.450;2022-08-05T15:35:12;25.30;1.00
26053;DHT22;13826;51.186;4.450;2022-08-05T15:37:38;25.30;1.00
26053;DHT22;13826;51.186;4.450;2022-08-05T15:40:04;25.20;1.00
26053;DHT22;13826;51.186;4.450;2022-08-05T15:42:30;25.10;1.00
26053;DHT22;13826;51.186;4.450;2022-08-05T15:44:57;25.10;1.00
26053;DHT22;13826;51.186;4.450;2022-08-05T15:47:23;25.20;1.00
26053;DHT22;13826;51.186;4.450;2022-08-05T15:49:49;25.30;1.00
26053;DHT22;13826;51.186;4.450;2022-08-05T15:52:16;25.10;1.00
26053;DHT22;13826;51.186;4.450;2022-08-05T15:54:42;24.90;1.00
26053;DHT22;13826;51.186;4.450;2022-08-05T15:57:07;24.50;1.00
26053;DHT22;13826;51.186;4.450;2022-08-05T15:59:33;24.30;1.00
26053;DHT22;13826;51.186;4.450;2022-08-05T16:01:59;24.50;1.00
26053;DHT22;13826;51.186;4.450;2022-08-05T16:04:25;24.00;1.00
26053;DHT22;13826;51.186;4.450;2022-08-05T16:06:50;23.90;1.00
26053;DHT22;13826;51.186;4.450;2022-08-05T16:09:16;24.10;1.00
26053;DHT22;13826;51.186;4.450;2022-08-05T16:11:42;24.20;1.00
26053;DHT22;13826;51.186;4.450;2022-08-05T16:14:07;24.20;1.00
26053;DHT22;13826;51.186;4.450;2022-08-05T16:16:33;23.90;1.00
26053;DHT22;13826;51.186;4.450;2022-08-05T16:19:00;23.60;1.00
26053;DHT22;13826;51.186;4.450;2022-08-05T16:21:26;23.50;1.00
26053;DHT22;13826;51.186;4.450;2022-08-05T16:23:52;23.20;1.00
26053;DHT22;13826;51.186;4.450;2022-08-05T16:26:17;23.20;1.00
26053;DHT22;13826;51.186;4.450;2022-08-05T16:28:43;23.20;1.00
26053;DHT22;13826;51.186;4.450;2022-08-05T16:31:09;23.20;1.00
26053;DHT22;13826;51.186;4.450;2022-08-05T16:33:34;23.20;1.00
26053;DHT22;13826;51.186;4.450;2022-08-05T16:36:03;23.10;1.00
26053;DHT22;13826;51.186;4.450;2022-08-05T16:38:30;22.90;1.00